Pagrindinis puslapis
METAR-TAF:

METAR-TAF

Oro uostai :

Niamėjus, Nigeris

platuma: 13-29N, ilguma: 002-10E, Aukštis: 223 m

Dabartinis oras

Ataskaita buvo paskelbta 1 valandą ir 24 minutes, ne 12:00 UTC
Vėjas 3 kt nuo kintamojo kryptimis
Temperatūra 33°C
Drėgmė 46%
Slėgis 1011 hPa
Matomumas 10 km arba daugiau
Mažai debesys ne aukštis 2000 ft

METAR: DRRN 171200Z VRB03KT 9999 FEW020 33/20 Q1011 NOSIG

Laikas: 14:24 (13:24 UTC)

Prognozė

Ataskaita buvo paskelbta 2 valandos ir 24 minutes, ne 11:00 UTC
Prognozė galioja nuo 17 metu 12 UTC su 18 metu 18 UTC
Vėjas 8 kt iš Vakarų/Pietvakarių
Matomumas: 8000 m
Mažai debesys ne aukštis 3000 ft
Tikimybė 30% :
Laikinai
nuo 17 metu 13 UTC su 17 metu 18 UTC
Su prošvaistėmis ne aukštis 1400 ft, Liūtiniai kamuoliniai debesys.
perkūnija

TAF: DRRN 171100Z 1712/1818 24008KT 8000 FEW030 PROB30 TEMPO 1713/1718 TS BKN014CB

Orai ataskaitas ir orų prognozės (METAR, TAF).

turimą stotys yra geltonos ir raudonos taškus žemėlapyje.

Perkelti pele per norėdami pamatyti stoties vardą.

Tada spustelėkite, norėdami matyti oro stebėjimo ir prognozės.

Norėdami pakeisti žemėlapį: spustelėkite ant žalios mygtukų su juodo kryžiaus žemyn,; žalią mygtuką su brūkšneliu, jei norite nutolinti; arba žalių rodyklių gretimoms žemėlapius.


METAR-TAF: